Time;durP1;ratioP1;P1;durP2;ratioP2;P2;SDS_P1;SDS_P2;PMS_P1;PMS_P2;Temp;Humidity;BMP_temperature;BMP_pressure;BME280_temperature;BME280_humidity;BME280_pressure;Samples;Min_cycle;Max_cycle;Signal;HPM_P1;HPM_P2
2021/10/08 00:01:41;;;;;;;299.90;13.23;;;;;;;;;;5097254;28;20055;-80
2021/10/08 00:04:06;;;;;;;345.75;14.88;;;;;;;;;;5097112;28;20024;-80
2021/10/08 00:06:32;;;;;;;203.23;12.60;;;;;;;;;;5098724;28;20042;-80
2021/10/08 00:08:58;;;;;;;31.50;10.25;;;;;;;;;;5097657;28;20057;-80
2021/10/08 00:11:24;;;;;;;49.00;9.55;;;;;;;;;;5098898;28;20499;-81
2021/10/08 00:13:50;;;;;;;38.33;9.38;;;;;;;;;;5099625;28;20028;-81
2021/10/08 00:16:15;;;;;;;98.95;9.07;;;;;;;;;;5099805;28;20106;-81
2021/10/08 00:18:45;;;;;;;18.15;9.25;;;;;;;;;;5098638;28;20032;-81
2021/10/08 00:21:11;;;;;;;24.08;6.93;;;;;;;;;;5097985;28;20371;-81
2021/10/08 00:23:37;;;;;;;12.25;5.60;;;;;;;;;;5099338;28;20016;-82
2021/10/08 00:26:03;;;;;;;11.18;5.30;;;;;;;;;;5100289;28;20039;-83
2021/10/08 00:28:28;;;;;;;14.48;5.22;;;;;;;;;;5100097;28;20036;-82
2021/10/08 00:30:54;;;;;;;56.60;5.93;;;;;;;;;;5098716;28;20093;-82
2021/10/08 00:33:19;;;;;;;18.52;6.25;;;;;;;;;;5098434;28;20071;-83
2021/10/08 00:35:45;;;;;;;47.47;6.72;;;;;;;;;;5097329;28;20032;-82
2021/10/08 00:38:10;;;;;;;34.83;5.95;;;;;;;;;;5098333;28;20044;-82
2021/10/08 00:40:42;;;;;;;26.33;5.35;;;;;;;;;;5100510;28;20040;-82
2021/10/08 00:43:08;;;;;;;6.35;5.13;;;;;;;;;;5098096;28;20083;-83
2021/10/08 00:45:34;;;;;;;29.70;4.80;;;;;;;;;;5098714;28;20413;-82
2021/10/08 00:48:04;;;;;;;8.05;4.32;;;;;;;;;;5099353;28;20035;-80
2021/10/08 00:50:31;;;;;;;13.52;4.43;;;;;;;;;;5096530;28;20028;-83
2021/10/08 00:52:57;;;;;;;14.77;4.63;;;;;;;;;;5097946;28;20390;-82
2021/10/08 00:55:22;;;;;;;27.58;4.15;;;;;;;;;;5098629;28;20024;-81
2021/10/08 00:57:48;;;;;;;114.88;6.53;;;;;;;;;;5098024;28;20067;-81
2021/10/08 01:00:15;;;;;;;5.07;4.28;;;;;;;;;;5098699;28;20042;-82
2021/10/08 01:02:41;;;;;;;141.25;6.55;;;;;;;;;;5099245;28;20028;-81
2021/10/08 01:05:07;;;;;;;48.63;6.20;;;;;;;;;;5080636;28;20081;-83
2021/10/08 01:07:33;;;;;;;106.18;5.95;;;;;;;;;;5097499;28;20502;-81
2021/10/08 01:09:58;;;;;;;20.20;4.10;;;;;;;;;;5090239;28;20045;-82
2021/10/08 01:12:24;;;;;;;20.05;5.25;;;;;;;;;;5075994;28;20032;-81
2021/10/08 01:14:49;;;;;;;23.10;4.80;;;;;;;;;;5075943;28;20025;-81
2021/10/08 01:17:18;;;;;;;17.60;4.28;;;;;;;;;;5076579;28;20043;-81
2021/10/08 01:19:48;;;;;;;5.40;4.10;;;;;;;;;;5060112;28;20078;-81
2021/10/08 01:22:14;;;;;;;10.43;3.85;;;;;;;;;;5077600;28;20036;-81
2021/10/08 01:24:43;;;;;;;7.38;4.00;;;;;;;;;;5075955;28;20029;-81
2021/10/08 01:27:11;;;;;;;4.35;3.70;;;;;;;;;;5075677;28;20035;-81
2021/10/08 01:29:52;;;;;;;4.88;3.95;;;;;;;;;;5075481;28;20032;-82
2021/10/08 01:32:22;;;;;;;5.63;4.47;;;;;;;;;;5075331;28;20390;-81
2021/10/08 01:34:48;;;;;;;39.25;4.53;;;;;;;;;;5077039;28;20044;-81
2021/10/08 01:37:15;;;;;;;45.22;5.20;;;;;;;;;;5073020;28;20086;-81
2021/10/08 01:39:41;;;;;;;9.02;3.40;;;;;;;;;;5074523;28;20032;-82
2021/10/08 01:42:09;;;;;;;5.68;3.85;;;;;;;;;;5075539;28;20036;-81
2021/10/08 01:44:34;;;;;;;8.88;4.35;;;;;;;;;;5074833;28;20029;-82
2021/10/08 01:47:00;;;;;;;15.68;4.00;;;;;;;;;;5073605;28;20051;-84
2021/10/08 01:49:29;;;;;;;35.97;4.80;;;;;;;;;;5074001;28;20035;-81
2021/10/08 01:51:57;;;;;;;11.80;3.63;;;;;;;;;;5075313;28;20032;-81
2021/10/08 01:54:23;;;;;;;11.93;3.85;;;;;;;;;;5074876;28;20025;-81
2021/10/08 01:56:48;;;;;;;30.85;4.55;;;;;;;;;;5077361;28;20036;-82
2021/10/08 01:59:14;;;;;;;19.35;3.95;;;;;;;;;;5079009;28;20036;-84
2021/10/08 02:01:41;;;;;;;6.53;4.28;;;;;;;;;;5076002;28;20047;-82
2021/10/08 02:04:13;;;;;;;4.78;3.55;;;;;;;;;;5076597;28;20024;-81
2021/10/08 02:06:39;;;;;;;11.40;3.97;;;;;;;;;;5078087;28;20111;-81
2021/10/08 02:09:05;;;;;;;14.02;4.05;;;;;;;;;;5076529;28;20127;-81
2021/10/08 02:11:33;;;;;;;12.95;3.78;;;;;;;;;;5089983;28;20406;-81
2021/10/08 02:14:00;;;;;;;18.17;3.72;;;;;;;;;;5075590;28;20059;-81
2021/10/08 02:16:26;;;;;;;18.35;4.57;;;;;;;;;;5076549;28;20028;-80
2021/10/08 02:18:59;;;;;;;10.50;3.90;;;;;;;;;;5074738;28;20025;-80
2021/10/08 02:21:26;;;;;;;8.43;4.20;;;;;;;;;;5074359;28;20033;-83
2021/10/08 02:23:53;;;;;;;8.48;4.63;;;;;;;;;;5072649;28;20016;-80
2021/10/08 02:26:19;;;;;;;7.45;4.68;;;;;;;;;;5072472;28;20028;-80
2021/10/08 02:28:44;;;;;;;9.57;5.68;;;;;;;;;;5072180;28;20044;-81
2021/10/08 02:31:11;;;;;;;5.82;5.13;;;;;;;;;;5055542;28;20059;-80
2021/10/08 02:33:37;;;;;;;10.32;5.03;;;;;;;;;;5074772;28;20032;-80
2021/10/08 02:36:04;;;;;;;7.50;4.78;;;;;;;;;;5076174;28;20036;-80
2021/10/08 02:38:30;;;;;;;12.88;5.22;;;;;;;;;;5074033;28;20170;-80
2021/10/08 02:40:56;;;;;;;7.53;4.63;;;;;;;;;;5103512;28;20045;-80
2021/10/08 02:43:22;;;;;;;24.20;5.57;;;;;;;;;;5116163;28;20019;-80
2021/10/08 02:45:48;;;;;;;60.97;5.18;;;;;;;;;;5114213;28;20102;-79
2021/10/08 02:48:14;;;;;;;10.60;4.30;;;;;;;;;;5114769;28;20032;-80
2021/10/08 02:50:40;;;;;;;54.83;4.78;;;;;;;;;;5097965;28;20391;-80
2021/10/08 02:53:09;;;;;;;152.48;6.03;;;;;;;;;;5098140;28;20036;-79
2021/10/08 02:55:35;;;;;;;162.63;6.55;;;;;;;;;;5114146;28;20042;-79
2021/10/08 02:58:00;;;;;;;75.28;4.88;;;;;;;;;;5113997;28;20484;-78
2021/10/08 03:00:26;;;;;;;61.85;4.93;;;;;;;;;;5118060;28;20028;-79
2021/10/08 03:02:51;;;;;;;233.27;8.85;;;;;;;;;;5119089;28;20046;-78
2021/10/08 03:05:17;;;;;;;16.20;4.88;;;;;;;;;;5119245;28;20039;-78
2021/10/08 03:07:43;;;;;;;18.08;4.47;;;;;;;;;;5117827;28;20039;-77
2021/10/08 03:10:10;;;;;;;15.50;4.28;;;;;;;;;;5117583;28;20034;-77
2021/10/08 03:12:37;;;;;;;18.02;4.78;;;;;;;;;;5116219;28;20456;-78
2021/10/08 03:15:05;;;;;;;18.70;4.80;;;;;;;;;;5100193;28;20545;-78
2021/10/08 03:17:31;;;;;;;9.55;4.88;;;;;;;;;;5117067;28;20138;-77
2021/10/08 03:19:57;;;;;;;14.02;4.75;;;;;;;;;;5117153;28;20042;-77
2021/10/08 03:22:23;;;;;;;142.57;6.15;;;;;;;;;;5118298;28;20122;-77
2021/10/08 03:24:48;;;;;;;121.00;6.05;;;;;;;;;;5118683;28;20096;-80
2021/10/08 03:27:14;;;;;;;17.25;5.10;;;;;;;;;;5117202;28;20119;-79
2021/10/08 03:29:39;;;;;;;106.47;5.47;;;;;;;;;;5116316;28;20034;-79
2021/10/08 03:32:05;;;;;;;13.05;4.20;;;;;;;;;;5116417;28;20084;-79
2021/10/08 03:34:30;;;;;;;6.78;3.97;;;;;;;;;;5117375;28;20028;-79
2021/10/08 03:36:59;;;;;;;7.18;3.97;;;;;;;;;;5117537;28;20031;-78
2021/10/08 03:39:28;;;;;;;5.55;3.72;;;;;;;;;;5114339;28;20414;-78
2021/10/08 03:41:54;;;;;;;60.15;4.75;;;;;;;;;;5117468;27;20047;-78
2021/10/08 03:44:21;;;;;;;53.90;4.53;;;;;;;;;;5117029;28;20028;-79
2021/10/08 03:46:51;;;;;;;13.73;3.33;;;;;;;;;;5117521;28;20020;-79
2021/10/08 03:49:18;;;;;;;4.10;3.50;;;;;;;;;;5115904;28;20067;-79
2021/10/08 03:51:47;;;;;;;12.35;4.13;;;;;;;;;;5116989;27;20031;-79
2021/10/08 03:54:14;;;;;;;4.35;3.40;;;;;;;;;;5115840;28;20504;-79
2021/10/08 03:56:40;;;;;;;4.78;3.55;;;;;;;;;;5116636;28;20457;-78
2021/10/08 03:59:07;;;;;;;17.05;3.38;;;;;;;;;;5117795;28;20036;-79
2021/10/08 04:01:33;;;;;;;17.80;3.40;;;;;;;;;;5115717;28;20031;-79
2021/10/08 04:04:01;;;;;;;10.20;3.55;;;;;;;;;;5115412;28;20452;-78
2021/10/08 04:06:27;;;;;;;29.10;3.40;;;;;;;;;;5115443;28;20473;-79
2021/10/08 04:08:53;;;;;;;9.02;3.25;;;;;;;;;;5115885;28;20042;-78
2021/10/08 04:11:18;;;;;;;10.02;3.33;;;;;;;;;;5096205;28;20032;-78
2021/10/08 04:13:44;;;;;;;5.60;3.03;;;;;;;;;;5095457;28;20063;-79
2021/10/08 04:16:10;;;;;;;3.70;3.08;;;;;;;;;;5095599;28;20534;-78
2021/10/08 04:18:37;;;;;;;19.17;3.45;;;;;;;;;;5095708;28;20162;-78
2021/10/08 04:21:03;;;;;;;18.25;3.15;;;;;;;;;;5095384;28;20058;-78
2021/10/08 04:23:28;;;;;;;16.80;3.30;;;;;;;;;;5095068;28;20529;-78
2021/10/08 04:25:54;;;;;;;7.60;2.92;;;;;;;;;;5095007;28;20031;-78
2021/10/08 04:28:20;;;;;;;32.20;4.13;;;;;;;;;;5096693;28;20035;-78
2021/10/08 04:30:45;;;;;;;16.02;3.47;;;;;;;;;;5095349;28;20489;-78
2021/10/08 04:33:22;;;;;;;15.32;3.70;;;;;;;;;;5095327;28;20036;-78
2021/10/08 04:36:01;;;;;;;8.38;2.78;;;;;;;;;;5094952;28;20032;-79
2021/10/08 04:38:31;;;;;;;8.25;3.10;;;;;;;;;;5095380;28;20076;-78
2021/10/08 04:41:02;;;;;;;6.85;2.63;;;;;;;;;;5078361;28;20032;-77
2021/10/08 04:43:28;;;;;;;3.58;2.92;;;;;;;;;;5073575;28;20033;-79
2021/10/08 04:45:55;;;;;;;3.35;2.85;;;;;;;;;;5073702;28;20029;-78
2021/10/08 04:48:21;;;;;;;3.40;2.83;;;;;;;;;;5075406;28;20102;-79
2021/10/08 04:50:46;;;;;;;9.30;2.92;;;;;;;;;;5076238;28;20036;-79
2021/10/08 04:53:17;;;;;;;4.07;2.83;;;;;;;;;;5075635;28;20163;-79
2021/10/08 04:55:44;;;;;;;74.50;3.47;;;;;;;;;;5077301;28;20040;-78
2021/10/08 04:58:10;;;;;;;81.32;4.15;;;;;;;;;;5080670;28;20394;-78
2021/10/08 05:00:36;;;;;;;242.68;6.47;;;;;;;;;;5076286;28;20029;-80
2021/10/08 05:03:10;;;;;;;35.72;3.60;;;;;;;;;;5074322;28;20109;-80
2021/10/08 05:05:37;;;;;;;41.45;3.60;;;;;;;;;;5074254;28;20035;-78
2021/10/08 05:08:03;;;;;;;113.03;4.93;;;;;;;;;;5074819;28;20489;-79
2021/10/08 05:10:30;;;;;;;111.38;4.82;;;;;;;;;;5078861;28;20029;-83
2021/10/08 05:12:56;;;;;;;36.05;4.00;;;;;;;;;;5061257;28;20135;-82
2021/10/08 05:15:22;;;;;;;44.20;3.80;;;;;;;;;;5077850;28;20032;-84
2021/10/08 05:17:48;;;;;;;42.78;4.03;;;;;;;;;;5077617;28;20056;-80
2021/10/08 05:20:14;;;;;;;264.67;6.72;;;;;;;;;;5076062;28;20060;-81
2021/10/08 05:22:45;;;;;;;37.97;3.55;;;;;;;;;;5075562;28;20582;-80
2021/10/08 05:25:11;;;;;;;61.40;4.15;;;;;;;;;;5075830;28;20101;-78
2021/10/08 05:27:38;;;;;;;6.32;3.45;;;;;;;;;;5076804;28;20043;-81
2021/10/08 05:30:07;;;;;;;50.15;3.70;;;;;;;;;;5075778;28;20032;-80
2021/10/08 05:32:32;;;;;;;17.80;3.03;;;;;;;;;;5075571;28;20033;-79
2021/10/08 05:34:57;;;;;;;16.10;3.00;;;;;;;;;;5076148;28;20504;-79
2021/10/08 05:37:23;;;;;;;42.50;4.18;;;;;;;;;;5075856;28;20051;-79
2021/10/08 05:39:49;;;;;;;189.32;5.47;;;;;;;;;;5076400;28;20051;-79
2021/10/08 05:42:14;;;;;;;23.80;2.95;;;;;;;;;;5075198;28;20055;-78
2021/10/08 05:44:40;;;;;;;83.53;3.83;;;;;;;;;;5076784;28;20028;-79
2021/10/08 05:47:06;;;;;;;299.63;6.65;;;;;;;;;;5076184;28;20029;-82
2021/10/08 05:49:31;;;;;;;60.67;4.32;;;;;;;;;;5076681;28;20398;-82
2021/10/08 05:51:56;;;;;;;252.52;7.32;;;;;;;;;;5075588;28;20111;-80
2021/10/08 05:54:22;;;;;;;41.58;3.47;;;;;;;;;;5075708;28;20056;-79
2021/10/08 05:56:48;;;;;;;5.38;3.60;;;;;;;;;;5076482;28;20062;-79
2021/10/08 05:59:14;;;;;;;12.05;3.08;;;;;;;;;;5076299;28;20486;-79
2021/10/08 06:01:42;;;;;;;15.80;2.58;;;;;;;;;;5074416;28;20028;-80
2021/10/08 06:04:08;;;;;;;8.52;3.03;;;;;;;;;;5072575;28;20024;-79
2021/10/08 06:06:36;;;;;;;12.18;2.78;;;;;;;;;;5071917;28;20526;-80
2021/10/08 06:09:02;;;;;;;12.10;2.90;;;;;;;;;;5071733;28;20039;-77
2021/10/08 06:11:30;;;;;;;17.38;2.90;;;;;;;;;;5072704;28;20123;-77
2021/10/08 06:13:56;;;;;;;6.45;2.80;;;;;;;;;;5072406;28;20119;-77
2021/10/08 06:16:24;;;;;;;8.82;2.70;;;;;;;;;;5073421;28;20036;-77
2021/10/08 06:18:50;;;;;;;27.85;2.95;;;;;;;;;;5073824;28;20119;-78
2021/10/08 06:21:16;;;;;;;44.50;3.25;;;;;;;;;;5073433;28;20477;-77
2021/10/08 06:23:42;;;;;;;11.60;2.60;;;;;;;;;;5057972;28;20033;-77
2021/10/08 06:26:08;;;;;;;12.32;2.92;;;;;;;;;;5073553;28;20115;-78
2021/10/08 06:28:34;;;;;;;3.00;2.55;;;;;;;;;;5072294;28;20035;-78
2021/10/08 06:31:01;;;;;;;3.78;2.47;;;;;;;;;;5071971;28;20028;-78
2021/10/08 06:33:29;;;;;;;6.70;2.50;;;;;;;;;;5072645;28;20071;-78
2021/10/08 06:35:55;;;;;;;58.85;3.08;;;;;;;;;;5076531;28;20039;-78
2021/10/08 06:38:22;;;;;;;21.08;2.72;;;;;;;;;;5076563;28;20055;-77
2021/10/08 06:40:47;;;;;;;85.82;3.75;;;;;;;;;;5073956;28;20032;-77
2021/10/08 06:43:15;;;;;;;171.02;5.28;;;;;;;;;;5097320;28;20093;-77
2021/10/08 06:45:47;;;;;;;79.35;4.00;;;;;;;;;;5097888;28;20028;-77
2021/10/08 06:48:16;;;;;;;20.45;2.97;;;;;;;;;;5097619;28;20055;-78
2021/10/08 06:50:44;;;;;;;38.33;3.20;;;;;;;;;;5097283;28;20495;-77
2021/10/08 06:53:11;;;;;;;11.82;2.55;;;;;;;;;;5095012;28;20063;-78
2021/10/08 06:55:39;;;;;;;53.72;3.00;;;;;;;;;;5097537;28;20028;-81
2021/10/08 06:58:05;;;;;;;3.00;2.50;;;;;;;;;;5099465;28;20035;-84
2021/10/08 07:00:31;;;;;;;26.85;2.95;;;;;;;;;;5097872;28;20032;-82
2021/10/08 07:02:59;;;;;;;71.57;4.75;;;;;;;;;;5098660;28;20107;-82
2021/10/08 07:05:30;;;;;;;166.98;5.25;;;;;;;;;;5098599;28;20470;-81
2021/10/08 07:07:57;;;;;;;121.97;4.65;;;;;;;;;;5096674;28;20028;-79
2021/10/08 07:10:25;;;;;;;41.35;3.72;;;;;;;;;;5096520;28;20042;-79
2021/10/08 07:12:51;;;;;;;151.82;4.55;;;;;;;;;;5098210;28;20032;-79
2021/10/08 07:15:18;;;;;;;130.80;4.93;;;;;;;;;;5097317;28;20036;-80
2021/10/08 07:17:47;;;;;;;71.85;3.72;;;;;;;;;;5098030;28;20043;-79
2021/10/08 07:20:15;;;;;;;81.30;4.80;;;;;;;;;;5097423;28;20039;-79
2021/10/08 07:22:40;;;;;;;24.00;3.42;;;;;;;;;;5098250;28;20125;-79
2021/10/08 07:25:07;;;;;;;33.70;3.60;;;;;;;;;;5099497;28;20028;-79
2021/10/08 07:27:33;;;;;;;103.85;4.10;;;;;;;;;;5098658;28;20028;-79
2021/10/08 07:29:58;;;;;;;187.63;6.05;;;;;;;;;;5099620;28;20531;-81
2021/10/08 07:32:25;;;;;;;24.88;2.95;;;;;;;;;;5100834;28;20055;-80
2021/10/08 07:34:51;;;;;;;11.88;5.32;;;;;;;;;;5098948;28;20036;-80
2021/10/08 07:37:17;;;;;;;38.97;4.32;;;;;;;;;;5098475;28;20473;-80
2021/10/08 07:39:42;;;;;;;14.63;3.47;;;;;;;;;;5098567;28;20047;-80
2021/10/08 07:42:08;;;;;;;175.32;5.22;;;;;;;;;;5098189;28;20062;-81
2021/10/08 07:44:34;;;;;;;57.30;3.42;;;;;;;;;;5099233;28;20039;-82
2021/10/08 07:47:00;;;;;;;56.72;3.33;;;;;;;;;;5098286;28;20123;-79
2021/10/08 07:49:26;;;;;;;9.02;2.90;;;;;;;;;;5098589;28;20045;-79
2021/10/08 07:51:51;;;;;;;34.35;2.72;;;;;;;;;;5099186;28;20036;-79
2021/10/08 07:54:17;;;;;;;4.88;2.38;;;;;;;;;;5098380;28;20048;-80
2021/10/08 07:56:42;;;;;;;26.77;3.53;;;;;;;;;;5098072;28;20096;-79
2021/10/08 07:59:07;;;;;;;20.27;3.33;;;;;;;;;;5097884;28;20044;-79
2021/10/08 08:01:33;;;;;;;58.10;3.83;;;;;;;;;;5098574;28;20051;-80
2021/10/08 08:03:59;;;;;;;6.55;2.67;;;;;;;;;;5081486;28;20397;-79
2021/10/08 08:06:25;;;;;;;3.08;2.70;;;;;;;;;;5099113;28;20107;-79
2021/10/08 08:08:50;;;;;;;2.72;2.30;;;;;;;;;;5096840;28;20109;-80
2021/10/08 08:11:16;;;;;;;12.50;2.80;;;;;;;;;;5098616;28;20035;-80
2021/10/08 08:13:41;;;;;;;87.07;3.63;;;;;;;;;;5100081;28;20374;-79
2021/10/08 08:16:06;;;;;;;26.50;4.93;;;;;;;;;;5081863;28;20039;-79
2021/10/08 08:18:32;;;;;;;4.38;2.97;;;;;;;;;;5098756;28;20032;-79
2021/10/08 08:20:57;;;;;;;19.65;3.78;;;;;;;;;;5081936;28;20122;-79
2021/10/08 08:23:23;;;;;;;5.25;3.30;;;;;;;;;;5097582;28;20039;-79
2021/10/08 08:25:49;;;;;;;12.77;3.17;;;;;;;;;;5098749;28;20493;-79
2021/10/08 08:28:15;;;;;;;54.70;3.95;;;;;;;;;;5100638;28;20027;-79
2021/10/08 08:30:41;;;;;;;5.40;3.78;;;;;;;;;;5099392;28;20036;-80
2021/10/08 08:33:08;;;;;;;8.93;3.35;;;;;;;;;;5099167;28;20028;-79
2021/10/08 08:35:34;;;;;;;4.40;3.50;;;;;;;;;;5100063;28;20229;-79
2021/10/08 08:37:59;;;;;;;8.38;3.97;;;;;;;;;;5099802;28;20036;-79
2021/10/08 08:40:28;;;;;;;15.05;5.03;;;;;;;;;;5103423;28;20106;-79
2021/10/08 08:42:54;;;;;;;141.48;8.07;;;;;;;;;;5121562;28;20043;-79
2021/10/08 08:45:19;;;;;;;84.32;7.07;;;;;;;;;;5121962;28;20058;-79
2021/10/08 08:48:06;;;;;;;25.48;5.50;;;;;;;;;;5103629;28;20036;-80
2021/10/08 08:50:33;;;;;;;;;;;;;;;;;;5121203;28;20058;-79
2021/10/08 08:52:58;;;;;;;18.17;4.28;;;;;;;;;;5121601;28;19915;-79
2021/10/08 08:55:25;;;;;;;5.88;4.60;;;;;;;;;;5121518;28;20038;-79
2021/10/08 08:57:50;;;;;;;7.32;5.50;;;;;;;;;;5121506;28;20046;-79
2021/10/08 09:00:19;;;;;;;10.07;5.07;;;;;;;;;;5105640;28;20040;-79
2021/10/08 09:02:52;;;;;;;7.43;3.72;;;;;;;;;;5121573;28;20043;-80
2021/10/08 09:05:20;;;;;;;4.45;3.45;;;;;;;;;;5122366;28;20043;-79
2021/10/08 09:07:46;;;;;;;4.68;3.28;;;;;;;;;;5121684;28;20042;-79
2021/10/08 09:10:16;;;;;;;5.20;3.58;;;;;;;;;;5118941;28;20036;-79
2021/10/08 09:12:43;;;;;;;4.78;3.38;;;;;;;;;;5082244;28;20040;-79
2021/10/08 09:15:09;;;;;;;4.13;3.55;;;;;;;;;;5081454;28;20455;-80
2021/10/08 09:17:35;;;;;;;4.07;3.00;;;;;;;;;;5065892;28;20378;-80
2021/10/08 09:20:04;;;;;;;30.60;3.65;;;;;;;;;;5083407;28;20029;-80
2021/10/08 09:22:39;;;;;;;3.10;2.70;;;;;;;;;;5082292;28;20450;-80
2021/10/08 09:25:15;;;;;;;3.75;3.00;;;;;;;;;;5078305;28;20378;-79
2021/10/08 09:27:43;;;;;;;3.25;2.83;;;;;;;;;;5076513;28;20037;-80
2021/10/08 09:30:09;;;;;;;3.88;2.80;;;;;;;;;;5077692;28;20424;-79
2021/10/08 09:32:45;;;;;;;4.43;2.67;;;;;;;;;;5078714;28;20553;-80
2021/10/08 09:35:12;;;;;;;3.35;2.55;;;;;;;;;;5078953;28;20037;-79
2021/10/08 09:37:39;;;;;;;3.70;2.78;;;;;;;;;;5080630;28;20379;-79
2021/10/08 09:40:20;;;;;;;3.25;2.83;;;;;;;;;;5089023;28;20054;-79
2021/10/08 09:42:45;;;;;;;3.80;2.42;;;;;;;;;;5100935;28;20030;-79
2021/10/08 09:45:11;;;;;;;2.63;2.40;;;;;;;;;;5100129;28;20087;-79
2021/10/08 09:47:57;;;;;;;3.13;2.60;;;;;;;;;;5099168;28;20082;-80
2021/10/08 09:50:23;;;;;;;3.40;2.38;;;;;;;;;;5100197;28;20028;-79
2021/10/08 09:52:49;;;;;;;2.55;2.28;;;;;;;;;;5102635;28;20072;-79
2021/10/08 09:55:15;;;;;;;3.75;2.22;;;;;;;;;;5099195;28;20118;-77
2021/10/08 09:57:49;;;;;;;4.30;2.35;;;;;;;;;;5098912;28;20086;-77
2021/10/08 10:00:51;;;;;;;4.95;2.67;;;;;;;;;;5100038;28;20077;-79
2021/10/08 10:03:19;;;;;;;3.30;2.50;;;;;;;;;;5100474;28;20040;-79
2021/10/08 10:05:45;;;;;;;4.28;3.30;;;;;;;;;;5100598;28;20043;-79
2021/10/08 10:08:11;;;;;;;2.38;2.10;;;;;;;;;;5099983;28;20389;-79
2021/10/08 10:10:38;;;;;;;2.25;1.90;;;;;;;;;;5100019;28;20032;-80
2021/10/08 10:13:05;;;;;;;2.30;1.98;;;;;;;;;;5097063;28;20544;-77
2021/10/08 10:15:33;;;;;;;2.90;2.40;;;;;;;;;;5096161;28;20066;-77
2021/10/08 10:18:03;;;;;;;2.70;1.80;;;;;;;;;;5095364;28;20470;-77
2021/10/08 10:20:30;;;;;;;1.70;1.60;;;;;;;;;;5098101;28;20043;-77
2021/10/08 10:22:56;;;;;;;2.25;1.90;;;;;;;;;;5097025;28;20119;-77
2021/10/08 10:25:22;;;;;;;3.88;1.83;;;;;;;;;;5094693;28;20063;-77
2021/10/08 10:27:47;;;;;;;3.60;1.83;;;;;;;;;;5095294;28;20067;-77
2021/10/08 10:30:13;;;;;;;3.22;2.10;;;;;;;;;;5094218;28;20024;-77
2021/10/08 10:32:44;;;;;;;2.42;2.20;;;;;;;;;;5096613;28;20393;-78
2021/10/08 10:35:45;;;;;;;3.25;2.22;;;;;;;;;;5096103;28;20358;-78
2021/10/08 10:38:30;;;;;;;1.77;1.58;;;;;;;;;;5095143;28;20043;-77
2021/10/08 10:41:07;;;;;;;2.10;1.90;;;;;;;;;;5092980;28;20124;-77
2021/10/08 10:43:41;;;;;;;2.20;1.60;;;;;;;;;;5096026;28;20028;-78
2021/10/08 10:46:40;;;;;;;2.30;2.00;;;;;;;;;;5095639;28;20043;-77
2021/10/08 10:51:58;;;;;;;2.42;2.00;;;;;;;;;;5096597;28;20028;-78
2021/10/08 10:54:43;;;;;;;3.05;1.63;;;;;;;;;;5096276;28;20040;-78
2021/10/08 10:57:33;;;;;;;2.53;1.70;;;;;;;;;;5096840;28;20123;-78
2021/10/08 11:00:13;;;;;;;2.72;1.70;;;;;;;;;;5095973;28;20032;-78
2021/10/08 11:02:39;;;;;;;4.78;1.95;;;;;;;;;;5095143;28;20109;-77
2021/10/08 11:05:19;;;;;;;2.25;1.67;;;;;;;;;;5095197;28;20481;-78
2021/10/08 11:08:06;;;;;;;1.75;1.45;;;;;;;;;;5096596;28;20044;-80
2021/10/08 11:10:31;;;;;;;2.38;2.10;;;;;;;;;;5095584;28;20043;-80
2021/10/08 11:13:24;;;;;;;2.80;2.22;;;;;;;;;;5095130;28;20028;-79
2021/10/08 11:15:57;;;;;;;3.05;1.90;;;;;;;;;;5094655;28;20173;-79
2021/10/08 11:18:35;;;;;;;2.25;1.48;;;;;;;;;;5078376;28;20086;-79
2021/10/08 11:21:04;;;;;;;2.65;1.83;;;;;;;;;;5098452;28;20389;-78
2021/10/08 11:23:33;;;;;;;2.97;1.98;;;;;;;;;;5099922;28;20055;-80
2021/10/08 11:26:19;;;;;;;4.20;2.88;;;;;;;;;;5099002;28;20043;-80
2021/10/08 11:28:47;;;;;;;5.65;2.20;;;;;;;;;;5098256;28;20036;-80
2021/10/08 11:31:17;;;;;;;5.07;2.35;;;;;;;;;;5099196;28;20533;-80
2021/10/08 11:33:47;;;;;;;7.40;2.70;;;;;;;;;;5098127;28;20057;-80
2021/10/08 11:36:19;;;;;;;7.32;2.50;;;;;;;;;;5099565;28;20038;-79
2021/10/08 11:38:46;;;;;;;3.63;2.55;;;;;;;;;;5098027;28;20139;-79
2021/10/08 11:41:17;;;;;;;2.63;2.42;;;;;;;;;;5097395;28;20036;-79
2021/10/08 11:43:43;;;;;;;4.07;2.80;;;;;;;;;;5099581;28;20382;-79
2021/10/08 11:46:39;;;;;;;3.50;2.92;;;;;;;;;;5099125;28;20062;-80
2021/10/08 11:49:22;;;;;;;5.40;4.10;;;;;;;;;;5099208;28;20043;-80
2021/10/08 11:51:56;;;;;;;4.63;3.45;;;;;;;;;;5098055;28;20047;-80
2021/10/08 11:54:21;;;;;;;8.07;4.70;;;;;;;;;;5096391;28;20416;-79
2021/10/08 11:57:04;;;;;;;7.97;4.63;;;;;;;;;;5096301;28;20106;-79
2021/10/08 11:59:30;;;;;;;10.20;5.00;;;;;;;;;;5097358;28;20036;-79
2021/10/08 12:02:14;;;;;;;7.10;4.70;;;;;;;;;;5098322;28;20103;-79
2021/10/08 12:04:59;;;;;;;10.32;5.07;;;;;;;;;;5098335;28;20091;-79
2021/10/08 12:07:25;;;;;;;8.90;5.38;;;;;;;;;;5096686;28;20044;-79
2021/10/08 12:10:08;;;;;;;9.23;5.05;;;;;;;;;;5096862;28;20047;-78
2021/10/08 12:12:33;;;;;;;11.48;6.38;;;;;;;;;;5096448;28;20172;-78
2021/10/08 12:14:59;;;;;;;8.07;5.10;;;;;;;;;;5098273;28;20068;-79
2021/10/08 12:17:24;;;;;;;10.10;5.97;;;;;;;;;;5097988;28;20473;-79
2021/10/08 12:19:49;;;;;;;7.70;5.10;;;;;;;;;;5098271;28;20040;-78
2021/10/08 12:22:22;;;;;;;7.40;5.60;;;;;;;;;;5097787;28;20050;-78
2021/10/08 12:24:49;;;;;;;9.65;5.90;;;;;;;;;;5097470;28;20085;-79
2021/10/08 12:27:15;;;;;;;8.80;6.30;;;;;;;;;;5099122;28;20036;-78
2021/10/08 12:29:42;;;;;;;8.82;5.50;;;;;;;;;;5099327;28;20051;-78
2021/10/08 12:32:12;;;;;;;13.88;6.00;;;;;;;;;;5096446;28;20530;-78
2021/10/08 12:34:41;;;;;;;9.63;5.95;;;;;;;;;;5098239;28;20500;-78
2021/10/08 12:37:23;;;;;;;7.50;6.13;;;;;;;;;;5097237;28;20552;-78
2021/10/08 12:40:13;;;;;;;16.65;7.07;;;;;;;;;;5096840;28;20044;-78
2021/10/08 12:42:59;;;;;;;14.00;6.97;;;;;;;;;;5098243;28;20047;-78
2021/10/08 12:45:33;;;;;;;8.68;6.18;;;;;;;;;;5098123;28;20386;-78
2021/10/08 12:48:00;;;;;;;11.15;6.88;;;;;;;;;;5095812;28;20036;-78
2021/10/08 12:50:26;;;;;;;14.98;6.68;;;;;;;;;;5097547;28;20046;-78
2021/10/08 12:52:54;;;;;;;13.70;6.80;;;;;;;;;;5096271;28;20081;-77
2021/10/08 12:55:25;;;;;;;9.88;6.88;;;;;;;;;;5095503;28;20477;-80
2021/10/08 12:58:25;;;;;;;11.80;6.53;;;;;;;;;;5096901;28;20074;-78
2021/10/08 13:00:59;;;;;;;10.73;6.38;;;;;;;;;;5070392;28;20024;-76
2021/10/08 13:03:36;;;;;;;11.13;6.47;;;;;;;;;;5068770;28;20083;-75
2021/10/08 13:06:04;;;;;;;11.02;6.90;;;;;;;;;;5068321;28;20035;-77
2021/10/08 13:08:32;;;;;;;15.45;7.93;;;;;;;;;;5068327;28;20030;-78
2021/10/08 13:11:02;;;;;;;9.20;6.65;;;;;;;;;;5067496;28;20046;-78
2021/10/08 13:13:33;;;;;;;12.20;6.70;;;;;;;;;;5072007;28;20115;-79
2021/10/08 13:16:00;;;;;;;12.30;8.00;;;;;;;;;;5071652;28;20020;-79
2021/10/08 13:18:40;;;;;;;12.93;8.02;;;;;;;;;;5071438;28;20032;-78
2021/10/08 13:21:06;;;;;;;15.20;7.60;;;;;;;;;;5071017;28;20040;-78
2021/10/08 13:23:32;;;;;;;13.45;8.02;;;;;;;;;;5070499;28;20079;-79
2021/10/08 13:25:58;;;;;;;12.65;7.20;;;;;;;;;;5071701;28;20496;-78
2021/10/08 13:28:23;;;;;;;10.27;8.00;;;;;;;;;;5071542;28;20814;-79
2021/10/08 13:30:51;;;;;;;10.60;7.53;;;;;;;;;;5072214;28;20077;-79
2021/10/08 13:33:20;;;;;;;9.98;7.15;;;;;;;;;;5070448;28;20024;-79
2021/10/08 13:35:45;;;;;;;11.57;7.70;;;;;;;;;;5072029;28;21081;-78
2021/10/08 13:38:11;;;;;;;9.27;7.68;;;;;;;;;;5071300;28;20040;-78
2021/10/08 13:40:36;;;;;;;10.48;7.95;;;;;;;;;;5070866;28;20024;-79
2021/10/08 13:43:02;;;;;;;11.77;8.02;;;;;;;;;;5071594;28;20101;-79
2021/10/08 13:45:27;;;;;;;12.00;7.35;;;;;;;;;;5071264;28;20027;-78
2021/10/08 13:47:53;;;;;;;17.45;8.40;;;;;;;;;;5072118;28;20071;-79
2021/10/08 13:50:18;;;;;;;10.80;7.50;;;;;;;;;;5073292;28;20076;-79
2021/10/08 13:52:44;;;;;;;15.07;8.10;;;;;;;;;;5076548;28;20040;-78
2021/10/08 13:55:09;;;;;;;10.07;8.20;;;;;;;;;;5074216;28;20036;-79
2021/10/08 13:57:35;;;;;;;12.48;8.32;;;;;;;;;;5073705;28;20287;-79
2021/10/08 14:00:00;;;;;;;12.50;8.02;;;;;;;;;;5074173;28;20046;-78
2021/10/08 14:02:34;;;;;;;14.20;7.75;;;;;;;;;;5056316;28;20024;-79
2021/10/08 14:05:08;;;;;;;11.55;8.20;;;;;;;;;;5074457;28;20034;-79
2021/10/08 14:12:48;;;;;;;16.08;8.63;;;;;;;;;;5071945;28;20051;-79
2021/10/08 14:15:14;;;;;;;14.55;8.13;;;;;;;;;;5071693;28;20640;-78
2021/10/08 14:17:40;;;;;;;15.93;8.40;;;;;;;;;;5070138;28;20085;-79
2021/10/08 14:20:06;;;;;;;13.95;8.73;;;;;;;;;;5081740;28;20040;-79
2021/10/08 14:22:33;;;;;;;14.55;8.30;;;;;;;;;;5096399;28;20715;-79
2021/10/08 14:24:58;;;;;;;11.30;7.63;;;;;;;;;;5095625;28;20130;-80
2021/10/08 14:27:24;;;;;;;13.65;8.20;;;;;;;;;;5095625;28;20477;-80
2021/10/08 14:29:49;;;;;;;17.05;8.40;;;;;;;;;;5095428;28;20036;-79
2021/10/08 14:32:15;;;;;;;10.93;7.80;;;;;;;;;;5095447;28;20031;-80
2021/10/08 14:34:40;;;;;;;12.85;8.05;;;;;;;;;;5095797;28;20035;-79
2021/10/08 14:37:06;;;;;;;20.45;10.38;;;;;;;;;;5094832;28;20043;-79
2021/10/08 14:39:31;;;;;;;13.93;9.50;;;;;;;;;;5095490;28;20040;-79
2021/10/08 14:41:56;;;;;;;12.90;8.70;;;;;;;;;;5095346;28;20402;-78
2021/10/08 14:44:22;;;;;;;12.77;7.45;;;;;;;;;;5093898;28;20036;-78
2021/10/08 14:46:52;;;;;;;11.60;8.50;;;;;;;;;;5093547;28;20445;-77
2021/10/08 14:49:18;;;;;;;12.95;8.00;;;;;;;;;;5093874;28;20040;-76